createdAt,value
2022-11-04T00:03:43.743Z,1.20
2022-11-04T00:08:36.261Z,0.83
2022-11-04T00:13:30.971Z,0.80
2022-11-04T00:18:22.648Z,1.00
2022-11-04T00:23:32.981Z,1.30
2022-11-04T00:28:42.744Z,1.10
2022-11-04T00:33:34.266Z,1.20
2022-11-04T00:38:26.016Z,1.00
2022-11-04T00:43:17.706Z,1.10
2022-11-04T00:48:10.532Z,1.43
2022-11-04T00:53:03.526Z,1.00
2022-11-04T00:57:55.954Z,0.93
2022-11-04T01:02:47.773Z,1.00
2022-11-04T01:07:43.498Z,1.50
2022-11-04T01:12:35.433Z,0.90
2022-11-04T01:17:27.137Z,0.83
2022-11-04T01:22:18.659Z,1.30
2022-11-04T01:27:10.224Z,0.80
2022-11-04T01:32:01.841Z,0.93
2022-11-04T01:36:53.448Z,0.90
2022-11-04T01:41:45.017Z,1.20
2022-11-04T01:46:50.674Z,1.30
2022-11-04T01:51:43.584Z,0.73
2022-11-04T01:56:35.259Z,0.67
2022-11-04T02:01:27.212Z,0.87
2022-11-04T02:06:19.916Z,1.03
2022-11-04T02:11:31.552Z,1.00
2022-11-04T02:16:50.063Z,0.70
2022-11-04T02:22:13.176Z,1.00
2022-11-04T02:27:30.183Z,1.10
2022-11-04T02:32:49.413Z,0.97
2022-11-04T02:37:59.641Z,1.10
2022-11-04T02:43:12.171Z,1.17
2022-11-04T02:48:30.587Z,1.03
2022-11-04T02:53:39.589Z,1.17
2022-11-04T02:58:36.761Z,1.13
2022-11-04T03:03:38.206Z,0.80
2022-11-04T03:08:45.734Z,0.97
2022-11-04T03:14:00.639Z,1.17
2022-11-04T03:19:05.370Z,0.80
2022-11-04T03:23:57.267Z,0.90
2022-11-04T03:29:01.378Z,1.10
2022-11-04T03:33:55.018Z,0.90
2022-11-04T03:38:47.079Z,1.00
2022-11-04T03:43:40.977Z,0.83
2022-11-04T03:48:32.704Z,1.00
2022-11-04T03:53:27.758Z,0.70
2022-11-04T03:58:34.578Z,1.17
2022-11-04T04:04:02.431Z,1.13
2022-11-04T04:08:58.459Z,1.30
2022-11-04T04:14:11.953Z,0.93
2022-11-04T04:19:10.341Z,1.17
2022-11-04T04:24:24.626Z,1.03
2022-11-04T04:29:18.555Z,1.57
2022-11-04T04:34:10.722Z,1.50
2022-11-04T04:39:27.105Z,1.17
2022-11-04T04:44:42.883Z,0.90
2022-11-04T04:49:37.440Z,0.87
2022-11-04T04:54:28.986Z,1.40
2022-11-04T04:59:20.558Z,1.43
2022-11-04T05:04:12.154Z,1.87
2022-11-04T05:09:04.138Z,1.37
2022-11-04T05:13:55.864Z,1.47
2022-11-04T05:18:47.499Z,1.13
2022-11-04T05:23:39.858Z,1.27
2022-11-04T05:28:31.632Z,1.47
2022-11-04T05:33:23.234Z,1.37
2022-11-04T05:38:14.830Z,1.50
2022-11-04T05:43:06.824Z,1.50
2022-11-04T05:48:04.274Z,1.90
2022-11-04T05:53:00.429Z,1.20
2022-11-04T05:57:52.321Z,1.57
2022-11-04T06:02:43.963Z,1.20
2022-11-04T06:07:35.578Z,1.60
2022-11-04T06:12:27.196Z,1.10
2022-11-04T06:17:22.427Z,1.40
2022-11-04T06:22:16.030Z,1.13
2022-11-04T06:27:08.001Z,1.17
2022-11-04T06:31:59.553Z,1.20
2022-11-04T06:36:51.666Z,1.63
2022-11-04T06:41:43.760Z,1.23
2022-11-04T06:46:43.486Z,1.30
2022-11-04T06:51:35.081Z,1.20
2022-11-04T06:56:26.701Z,1.40
2022-11-04T07:01:22.115Z,1.30
2022-11-04T07:06:14.093Z,1.40
2022-11-04T07:11:05.770Z,1.33
2022-11-04T07:15:57.952Z,1.70
2022-11-04T07:20:49.615Z,1.47
2022-11-04T07:25:41.951Z,1.80
2022-11-04T07:30:33.490Z,1.47
2022-11-04T07:35:25.009Z,1.50
2022-11-04T07:40:16.991Z,1.33
2022-11-04T07:45:08.994Z,1.40
2022-11-04T07:50:02.923Z,1.63
2022-11-04T07:54:56.956Z,1.70
2022-11-04T07:59:48.550Z,1.60
2022-11-04T08:04:40.414Z,1.60
2022-11-04T08:09:31.957Z,1.43
2022-11-04T08:14:23.469Z,1.27
2022-11-04T08:19:14.990Z,1.40
2022-11-04T08:24:06.802Z,1.43
2022-11-04T08:28:59.261Z,1.90
2022-11-04T08:33:51.709Z,1.40
2022-11-04T08:38:43.665Z,1.70
2022-11-04T08:43:35.796Z,1.90
2022-11-04T08:48:28.055Z,1.80
2022-11-04T08:53:20.243Z,2.00
2022-11-04T08:58:12.551Z,1.80
2022-11-04T09:03:04.711Z,1.77
2022-11-04T09:07:56.814Z,1.90
2022-11-04T09:12:48.464Z,1.80
2022-11-04T09:17:40.540Z,1.80
2022-11-04T09:22:32.190Z,1.50
2022-11-04T09:27:23.913Z,1.73
2022-11-04T09:32:15.676Z,1.67
2022-11-04T09:37:07.445Z,1.70
2022-11-04T09:42:24.923Z,1.87
2022-11-04T09:47:21.620Z,1.60
2022-11-04T09:52:26.527Z,1.93
2022-11-04T09:57:19.306Z,2.10
2022-11-04T10:02:50.141Z,1.87
2022-11-04T10:08:00.978Z,1.90
2022-11-04T10:13:11.524Z,1.70
2022-11-04T10:18:18.363Z,2.27
2022-11-04T10:23:32.309Z,2.13
2022-11-04T10:28:41.004Z,1.90
2022-11-04T10:33:41.413Z,1.90
2022-11-04T10:38:48.186Z,2.07
2022-11-04T10:43:41.060Z,2.17
2022-11-04T10:48:39.146Z,2.07
2022-11-04T10:53:33.115Z,2.20
2022-11-04T10:58:32.882Z,2.63
2022-11-04T11:03:35.450Z,2.20
2022-11-04T11:08:33.046Z,2.13
2022-11-04T11:13:34.875Z,2.20
2022-11-04T11:18:28.490Z,2.33
2022-11-04T11:23:33.964Z,2.47
2022-11-04T11:28:26.949Z,2.10
2022-11-04T11:33:27.916Z,2.23
2022-11-04T11:38:25.577Z,3.03
2022-11-04T11:43:27.047Z,1.30
2022-11-04T11:48:29.381Z,2.50
2022-11-04T11:53:24.253Z,1.30
2022-11-04T12:09:18.385Z,1.90
2022-11-04T12:14:36.679Z,2.80
2022-11-04T12:19:41.146Z,1.77
2022-11-04T12:24:44.316Z,1.00
2022-11-04T12:29:54.472Z,1.70
2022-11-04T12:34:50.341Z,1.83
2022-11-04T12:40:09.565Z,1.53
2022-11-04T12:45:10.067Z,1.63
2022-11-04T12:50:23.297Z,2.00
2022-11-04T12:55:45.596Z,1.37
2022-11-04T13:00:38.760Z,1.40
2022-11-04T13:05:52.483Z,1.40
2022-11-04T13:10:59.511Z,1.10
2022-11-04T13:15:58.097Z,1.30
2022-11-04T13:21:04.653Z,1.20
2022-11-04T13:25:58.425Z,1.07
2022-11-04T13:30:59.077Z,1.00
2022-11-04T13:35:56.551Z,1.20
2022-11-04T13:41:22.070Z,1.30
2022-11-04T13:46:23.763Z,1.10
2022-11-04T13:51:15.475Z,1.03
2022-11-04T13:56:31.637Z,1.57
2022-11-04T14:01:19.491Z,1.40
2022-11-04T14:06:11.166Z,1.20
2022-11-04T14:11:07.971Z,1.50
2022-11-04T14:16:29.041Z,1.80
2022-11-04T14:21:23.325Z,1.90
2022-11-04T14:26:20.689Z,2.00
2022-11-04T14:31:17.722Z,1.40
2022-11-04T14:36:21.563Z,1.90
2022-11-04T14:41:39.572Z,1.70
2022-11-04T14:46:40.362Z,2.00
2022-11-04T14:51:40.139Z,1.93
2022-11-04T14:56:31.771Z,2.03
2022-11-04T15:01:26.536Z,2.23
2022-11-04T15:06:40.426Z,1.80
2022-11-04T15:11:58.707Z,2.27
2022-11-04T15:16:55.181Z,2.17
2022-11-04T15:21:49.515Z,2.43
2022-11-04T15:26:41.150Z,2.53
2022-11-04T15:31:34.965Z,2.17
2022-11-04T15:36:33.439Z,2.17
2022-11-04T15:41:45.759Z,2.70
2022-11-04T15:46:37.326Z,3.23
2022-11-04T15:51:34.602Z,2.47
2022-11-04T15:56:32.384Z,2.70
2022-11-04T16:01:24.755Z,2.67
2022-11-04T16:06:16.993Z,2.80
2022-11-04T16:11:18.046Z,2.83
2022-11-04T16:16:23.226Z,2.70
2022-11-04T16:21:22.106Z,2.60
2022-11-04T16:26:14.139Z,2.73
2022-11-04T16:31:08.507Z,2.07
2022-11-04T16:36:00.196Z,3.03
2022-11-04T16:40:51.853Z,4.10
2022-11-04T16:45:52.418Z,3.00
2022-11-04T16:50:46.614Z,2.93
2022-11-04T16:55:42.950Z,2.50
2022-11-04T17:00:34.621Z,3.07
2022-11-04T17:05:26.150Z,3.50
2022-11-04T17:10:22.067Z,3.03
2022-11-04T17:15:15.132Z,2.93
2022-11-04T17:20:07.655Z,4.30
2022-11-04T17:24:59.180Z,3.33
2022-11-04T17:29:50.780Z,3.93
2022-11-04T17:34:43.193Z,3.90
2022-11-04T17:39:34.865Z,3.93
2022-11-04T17:44:26.456Z,4.73
2022-11-04T17:49:21.163Z,4.53
2022-11-04T17:54:13.373Z,3.90
2022-11-04T17:59:05.283Z,4.07
2022-11-04T18:03:57.982Z,3.70
2022-11-04T18:08:52.842Z,4.10
2022-11-04T18:13:44.398Z,5.50
2022-11-04T18:18:35.910Z,4.60
2022-11-04T18:23:29.295Z,4.90
2022-11-04T18:28:20.893Z,4.77
2022-11-04T18:33:12.824Z,4.60
2022-11-04T18:38:04.492Z,4.13
2022-11-04T18:42:56.417Z,5.57
2022-11-04T18:47:48.733Z,5.57
2022-11-04T18:52:40.998Z,5.37
2022-11-04T18:57:32.601Z,5.60
2022-11-04T19:02:24.411Z,5.50
2022-11-04T19:07:16.120Z,5.97
2022-11-04T19:12:26.691Z,6.23
2022-11-04T19:17:18.618Z,7.17
2022-11-04T19:22:10.951Z,6.80
2022-11-04T19:27:02.593Z,6.63
2022-11-04T19:31:54.237Z,7.70
2022-11-04T19:36:45.860Z,7.40
2022-11-04T19:41:56.477Z,7.80
2022-11-04T19:46:49.185Z,8.37
2022-11-04T19:51:41.247Z,9.80
2022-11-04T19:56:33.776Z,9.87
2022-11-04T20:01:25.592Z,8.97
2022-11-04T20:06:18.393Z,9.60
2022-11-04T20:11:11.024Z,10.33
2022-11-04T20:16:14.250Z,10.57
2022-11-04T20:21:06.455Z,11.07
2022-11-04T20:26:06.524Z,11.67
2022-11-04T20:30:58.153Z,12.07
2022-11-04T20:35:49.917Z,11.50
2022-11-04T20:40:41.535Z,12.57
2022-11-04T20:45:33.148Z,12.17
2022-11-04T20:50:24.761Z,13.30
2022-11-04T20:55:16.398Z,14.10
2022-11-04T21:00:08.930Z,13.43
2022-11-04T21:05:00.560Z,14.27
2022-11-04T21:09:52.224Z,14.87
2022-11-04T21:14:43.780Z,14.37
2022-11-04T21:19:35.359Z,14.00
2022-11-04T21:24:26.996Z,15.77
2022-11-04T21:29:20.359Z,15.10
2022-11-04T21:34:12.266Z,15.27
2022-11-04T21:39:04.435Z,15.37
2022-11-04T21:44:01.435Z,15.27
2022-11-04T21:48:53.143Z,16.03
2022-11-04T21:53:45.248Z,14.00
2022-11-04T21:58:37.898Z,12.50
2022-11-04T22:03:29.561Z,12.53
2022-11-04T22:08:21.430Z,13.30
2022-11-04T22:13:13.243Z,12.03
2022-11-04T22:18:06.107Z,12.10
2022-11-04T22:22:57.978Z,12.20
2022-11-04T22:27:49.679Z,11.33
2022-11-04T22:32:41.444Z,11.50
2022-11-04T22:37:33.372Z,11.33
